createdAt,value
2023-09-23T00:02:17.073Z,6.13
2023-09-23T00:05:19.068Z,5.38
2023-09-23T00:08:23.348Z,6.00
2023-09-23T00:11:25.433Z,6.82
2023-09-23T00:14:27.355Z,5.72
2023-09-23T00:17:30.134Z,6.07
2023-09-23T00:20:32.395Z,5.82
2023-09-23T00:23:36.333Z,5.82
2023-09-23T00:26:38.276Z,6.82
2023-09-23T00:29:40.234Z,5.78
2023-09-23T00:32:43.517Z,5.95
2023-09-23T00:35:46.334Z,7.60
2023-09-23T00:38:50.266Z,6.18
2023-09-23T00:41:53.194Z,6.90
2023-09-23T00:44:55.073Z,5.72
2023-09-23T00:47:58.233Z,6.25
2023-09-23T00:51:01.207Z,6.60
2023-09-23T00:54:07.550Z,6.22
2023-09-23T00:57:09.558Z,6.55
2023-09-23T01:00:24.738Z,5.63
2023-09-23T01:03:28.550Z,8.43
2023-09-23T01:06:30.843Z,5.82
2023-09-23T01:09:34.739Z,5.70
2023-09-23T01:12:36.793Z,5.97
2023-09-23T01:15:41.948Z,6.05
2023-09-23T01:18:48.703Z,6.93
2023-09-23T01:21:51.004Z,5.72
2023-09-23T01:24:54.289Z,6.72
2023-09-23T01:27:56.898Z,6.47
2023-09-23T01:30:59.309Z,5.95
2023-09-23T01:34:02.638Z,7.03
2023-09-23T01:37:04.526Z,6.53
2023-09-23T01:40:09.972Z,5.90
2023-09-23T01:43:13.087Z,7.10
2023-09-23T01:46:15.065Z,6.47
2023-09-23T01:49:17.728Z,5.82
2023-09-23T01:52:19.658Z,5.93
2023-09-23T01:55:23.106Z,7.20
2023-09-23T01:58:25.874Z,6.13
2023-09-23T02:01:28.069Z,6.22
2023-09-23T02:04:31.172Z,6.35
2023-09-23T02:07:33.092Z,6.28
2023-09-23T02:10:36.426Z,6.45
2023-09-23T02:13:42.090Z,6.60
2023-09-23T02:16:44.228Z,5.82
2023-09-23T02:19:46.814Z,5.95
2023-09-23T02:22:50.180Z,6.70
2023-09-23T02:25:54.128Z,7.05
2023-09-23T02:28:56.146Z,6.82
2023-09-23T02:31:58.344Z,5.78
2023-09-23T02:35:00.616Z,6.80
2023-09-23T02:38:02.713Z,7.18
2023-09-23T02:41:06.684Z,6.10
2023-09-23T02:44:08.966Z,6.45
2023-09-23T02:47:11.665Z,5.75
2023-09-23T02:50:15.241Z,6.32
2023-09-23T02:53:18.771Z,6.50
2023-09-23T02:56:22.164Z,5.32
2023-09-23T02:59:27.724Z,5.95
2023-09-23T03:02:32.321Z,5.40
2023-09-23T03:05:40.134Z,6.15
2023-09-23T03:08:48.864Z,5.95
2023-09-23T03:11:56.828Z,5.88
2023-09-23T03:15:01.168Z,6.15
2023-09-23T03:18:04.009Z,5.43
2023-09-23T03:21:10.137Z,6.40
2023-09-23T03:24:12.526Z,5.13
2023-09-23T03:27:16.322Z,7.20
2023-09-23T03:30:18.860Z,6.00
2023-09-23T03:33:22.637Z,6.38
2023-09-23T03:36:26.702Z,6.07
2023-09-23T03:39:29.836Z,6.25
2023-09-23T03:42:33.830Z,6.50
2023-09-23T03:45:36.291Z,6.97
2023-09-23T03:48:38.873Z,6.03
2023-09-23T03:51:40.881Z,6.40
2023-09-23T03:54:42.744Z,8.40
2023-09-23T03:57:47.753Z,5.70
2023-09-23T04:03:53.695Z,6.78
2023-09-23T04:06:56.842Z,6.35
2023-09-23T04:09:59.477Z,6.03
2023-09-23T04:13:02.749Z,6.65
2023-09-23T04:16:06.798Z,6.90
2023-09-23T04:19:08.981Z,6.60
2023-09-23T04:22:12.427Z,7.05
2023-09-23T04:25:17.018Z,6.85
2023-09-23T04:28:20.791Z,6.72
2023-09-23T04:31:25.556Z,7.40
2023-09-23T04:34:27.538Z,6.90
2023-09-23T04:37:29.339Z,6.35
2023-09-23T04:40:31.491Z,7.60
2023-09-23T04:43:34.850Z,6.60
2023-09-23T04:46:37.177Z,8.00
2023-09-23T04:49:40.233Z,7.55
2023-09-23T04:52:43.912Z,6.73
2023-09-23T04:55:48.756Z,6.75
2023-09-23T04:58:53.520Z,6.85
2023-09-23T05:01:55.433Z,7.28
2023-09-23T05:04:57.524Z,6.90
2023-09-23T05:08:00.526Z,7.85
2023-09-23T05:11:03.567Z,6.20
2023-09-23T05:14:07.744Z,7.03
2023-09-23T05:17:11.476Z,6.80
2023-09-23T05:20:15.662Z,6.20
2023-09-23T05:23:18.390Z,5.63
2023-09-23T05:26:20.616Z,6.65
2023-09-23T05:29:24.704Z,5.22
2023-09-23T05:32:26.771Z,5.22
2023-09-23T05:35:29.255Z,5.40
2023-09-23T05:38:31.355Z,6.18
2023-09-23T05:41:33.335Z,4.95
2023-09-23T05:44:37.239Z,5.28
2023-09-23T05:47:39.207Z,5.68
2023-09-23T05:50:42.193Z,6.03
2023-09-23T05:53:44.280Z,5.35
2023-09-23T05:56:46.164Z,5.00
2023-09-23T05:59:49.548Z,4.88
2023-09-23T06:02:51.805Z,4.30
2023-09-23T06:05:54.098Z,4.88
2023-09-23T06:08:57.831Z,6.38
2023-09-23T06:12:00.087Z,6.20
2023-09-23T06:15:05.238Z,5.53
2023-09-23T06:18:08.276Z,5.38
2023-09-23T06:21:10.804Z,5.65
2023-09-23T06:24:12.762Z,6.40
2023-09-23T06:27:15.197Z,7.05
2023-09-23T06:30:19.418Z,8.75
2023-09-23T06:33:23.062Z,8.57
2023-09-23T06:36:24.833Z,7.78
2023-09-23T06:39:27.109Z,8.45
2023-09-23T06:42:28.969Z,8.90
2023-09-23T06:45:32.242Z,9.77
2023-09-23T06:48:34.898Z,10.07
2023-09-23T06:51:36.802Z,9.55
2023-09-23T06:54:39.299Z,9.88
2023-09-23T06:57:41.237Z,10.50
2023-09-23T07:00:45.484Z,9.48
2023-09-23T07:03:47.993Z,11.65
2023-09-23T07:06:50.175Z,12.57
2023-09-23T07:09:53.052Z,14.80
2023-09-23T07:12:55.357Z,16.45
2023-09-23T07:15:59.366Z,13.95
2023-09-23T07:19:04.449Z,13.68
2023-09-23T07:22:06.489Z,14.05
2023-09-23T07:25:09.072Z,14.48
2023-09-23T07:28:11.323Z,13.95
2023-09-23T07:31:15.308Z,12.32
2023-09-23T07:34:17.977Z,14.88
2023-09-23T07:37:19.981Z,14.13
2023-09-23T07:40:21.861Z,11.65
2023-09-23T07:43:24.024Z,12.70
2023-09-23T07:46:27.324Z,11.63
2023-09-23T07:49:29.906Z,11.32
2023-09-23T07:52:35.801Z,12.70
2023-09-23T07:55:38.562Z,11.48
2023-09-23T07:58:40.568Z,10.18
2023-09-23T08:01:44.372Z,12.70
2023-09-23T08:04:46.482Z,12.95
2023-09-23T08:12:06.140Z,12.07
2023-09-23T08:15:10.185Z,9.93
2023-09-23T08:18:14.114Z,12.10
2023-09-23T08:21:16.913Z,12.35
2023-09-23T08:24:18.857Z,16.77
2023-09-23T08:27:20.719Z,17.45
2023-09-23T08:30:23.330Z,15.32
2023-09-23T08:33:29.116Z,12.25
2023-09-23T08:36:31.222Z,12.98
2023-09-23T08:39:33.034Z,14.98
2023-09-23T08:42:35.918Z,16.50
2023-09-23T08:45:41.613Z,15.15
2023-09-23T08:48:45.499Z,14.38
2023-09-23T08:51:47.626Z,13.18
2023-09-23T08:54:51.234Z,14.90
2023-09-23T08:57:55.504Z,11.43
2023-09-23T09:00:57.411Z,11.05
2023-09-23T09:04:00.681Z,11.30
2023-09-23T09:07:02.696Z,12.95
2023-09-23T09:10:06.084Z,9.05
2023-09-23T09:13:08.743Z,9.88
2023-09-23T09:16:10.689Z,7.95
2023-09-23T09:19:14.158Z,8.13
2023-09-23T09:22:17.950Z,8.55
2023-09-23T09:25:22.293Z,6.75
2023-09-23T09:28:24.729Z,6.97
2023-09-23T09:31:33.984Z,7.60
2023-09-23T09:34:44.462Z,8.38
2023-09-23T09:37:49.255Z,7.85
2023-09-23T09:40:53.076Z,6.38
2023-09-23T09:43:55.327Z,5.90
2023-09-23T09:46:58.428Z,5.32
2023-09-23T09:50:04.863Z,6.20
2023-09-23T09:53:09.964Z,7.32
2023-09-23T09:59:24.203Z,7.53
2023-09-23T10:02:28.318Z,6.22
2023-09-23T10:05:36.200Z,7.50
2023-09-23T10:08:39.885Z,6.72
2023-09-23T10:11:42.566Z,7.82
2023-09-23T10:14:53.924Z,6.28
2023-09-23T10:17:58.609Z,6.18
2023-09-23T10:21:03.506Z,6.63
2023-09-23T10:24:09.538Z,6.03
2023-09-23T10:27:11.845Z,5.75
2023-09-23T10:30:23.436Z,5.32
2023-09-23T10:39:33.899Z,4.43
2023-09-23T10:42:36.083Z,4.00
2023-09-23T10:45:38.250Z,4.72
2023-09-23T10:48:41.521Z,5.50
2023-09-23T10:51:45.940Z,6.80
2023-09-23T10:54:49.012Z,7.03
2023-09-23T10:57:52.359Z,7.38
2023-09-23T11:00:56.881Z,8.38
2023-09-23T11:03:59.757Z,7.90
2023-09-23T11:07:03.969Z,7.90
2023-09-23T11:10:07.093Z,7.00
2023-09-23T11:13:11.548Z,6.63
2023-09-23T11:16:13.622Z,6.28
2023-09-23T11:19:18.648Z,6.30
2023-09-23T11:22:25.611Z,7.88
2023-09-23T11:25:28.602Z,8.27
2023-09-23T11:28:31.248Z,8.40
2023-09-23T11:31:33.500Z,10.55
2023-09-23T11:34:37.028Z,8.13
2023-09-23T11:37:40.337Z,8.27
2023-09-23T11:40:43.087Z,7.70
2023-09-23T11:43:45.759Z,8.32
2023-09-23T11:46:48.607Z,8.25
2023-09-23T11:49:52.265Z,9.15
2023-09-23T11:52:55.625Z,8.30
2023-09-23T11:55:57.537Z,8.98
2023-09-23T11:59:08.245Z,8.65
2023-09-23T12:02:12.269Z,8.63
2023-09-23T12:05:14.476Z,9.20
2023-09-23T12:08:17.959Z,7.88
2023-09-23T12:11:22.757Z,8.45
2023-09-23T12:14:25.262Z,8.13
2023-09-23T12:17:27.382Z,8.30
2023-09-23T12:20:30.007Z,8.70
2023-09-23T12:23:38.342Z,8.95
2023-09-23T12:26:40.323Z,9.00
2023-09-23T12:29:42.673Z,8.25
2023-09-23T12:32:46.015Z,7.95
2023-09-23T12:35:48.448Z,8.43
2023-09-23T12:38:51.832Z,7.95
2023-09-23T12:41:53.766Z,8.15
2023-09-23T12:44:55.610Z,8.10
2023-09-23T12:47:58.362Z,8.30
2023-09-23T12:51:01.267Z,7.65
2023-09-23T12:54:04.904Z,7.57
2023-09-23T12:57:06.755Z,6.97
2023-09-23T13:00:10.133Z,5.28
2023-09-23T13:03:12.522Z,4.75
2023-09-23T13:06:15.162Z,4.22
2023-09-23T13:09:19.655Z,4.10
2023-09-23T13:12:22.531Z,3.65
2023-09-23T13:15:24.861Z,3.80
2023-09-23T13:18:27.093Z,3.50
2023-09-23T13:21:29.368Z,4.00
2023-09-23T13:24:34.298Z,3.95
2023-09-23T13:27:37.456Z,4.45
2023-09-23T13:30:39.937Z,4.25
2023-09-23T13:33:42.855Z,4.40
2023-09-23T13:36:45.165Z,4.88
2023-09-23T13:39:49.417Z,4.38
2023-09-23T13:42:52.123Z,4.68
2023-09-23T13:45:54.958Z,5.70
2023-09-23T13:48:57.408Z,5.15
2023-09-23T13:51:59.541Z,4.68
2023-09-23T13:55:06.210Z,4.93
2023-09-23T13:58:08.631Z,5.10
2023-09-23T14:01:12.297Z,4.43
2023-09-23T14:04:15.295Z,4.47
2023-09-23T14:07:18.025Z,4.43
2023-09-23T14:10:22.739Z,4.38
2023-09-23T14:13:25.375Z,3.67
2023-09-23T14:16:27.807Z,4.90
2023-09-23T14:19:30.519Z,4.40
2023-09-23T14:22:33.831Z,3.92
2023-09-23T14:25:38.441Z,4.40
2023-09-23T14:28:43.974Z,5.15
2023-09-23T14:31:46.771Z,5.97
2023-09-23T14:34:48.972Z,5.80
2023-09-23T14:37:51.678Z,5.05
2023-09-23T14:40:55.366Z,4.78
2023-09-23T14:43:57.637Z,5.32
2023-09-23T14:47:00.138Z,4.90
2023-09-23T14:50:03.364Z,4.93
2023-09-23T14:53:05.993Z,5.43
2023-09-23T14:56:09.859Z,5.20
2023-09-23T14:59:12.153Z,4.90
2023-09-23T15:02:14.333Z,5.03
2023-09-23T15:05:18.408Z,5.00
2023-09-23T15:08:20.833Z,4.72
2023-09-23T15:11:27.385Z,4.28
2023-09-23T15:14:30.548Z,4.30
2023-09-23T15:17:33.068Z,4.20
2023-09-23T15:20:38.666Z,3.80
2023-09-23T15:23:42.468Z,4.55
2023-09-23T15:26:48.537Z,3.92
2023-09-23T15:29:51.273Z,3.30
2023-09-23T15:32:54.165Z,3.00
2023-09-23T15:35:57.242Z,3.30
2023-09-23T15:39:00.552Z,3.13
2023-09-23T15:42:04.964Z,2.72
2023-09-23T15:45:08.464Z,2.75
2023-09-23T15:48:11.001Z,3.17
2023-09-23T15:51:20.990Z,3.05
2023-09-23T15:54:23.486Z,3.15
2023-09-23T15:57:27.205Z,2.42
2023-09-23T16:00:31.070Z,3.10
2023-09-23T16:03:33.589Z,2.67
2023-09-23T16:06:36.882Z,2.72
2023-09-23T16:09:39.029Z,3.33
2023-09-23T16:12:43.153Z,2.72
2023-09-23T16:15:46.290Z,2.67
2023-09-23T16:18:48.856Z,3.10
2023-09-23T16:21:52.881Z,2.40
2023-09-23T16:24:55.503Z,2.30
2023-09-23T16:28:00.706Z,2.47
2023-09-23T16:31:03.245Z,2.67
2023-09-23T16:34:06.160Z,2.63
2023-09-23T16:37:09.186Z,1.92
2023-09-23T16:40:13.045Z,2.63
2023-09-23T16:43:16.544Z,2.85
2023-09-23T16:46:18.857Z,1.98
2023-09-23T16:49:21.530Z,2.30
2023-09-23T16:52:24.767Z,2.15
2023-09-23T16:55:28.896Z,2.28
2023-09-23T16:58:33.404Z,2.50
2023-09-23T17:01:36.858Z,2.60
2023-09-23T17:04:43.372Z,2.60
2023-09-23T17:07:46.122Z,2.58
2023-09-23T17:10:49.745Z,2.58
2023-09-23T17:13:53.851Z,2.38
2023-09-23T17:16:57.105Z,2.90
2023-09-23T17:19:59.836Z,2.55
2023-09-23T17:23:03.985Z,2.65
2023-09-23T17:26:06.885Z,2.40
2023-09-23T17:29:11.555Z,2.63
2023-09-23T17:32:13.914Z,2.83
2023-09-23T17:35:18.772Z,2.50
2023-09-23T17:38:21.560Z,2.75
2023-09-23T17:41:24.011Z,2.33
2023-09-23T17:44:28.099Z,2.90
2023-09-23T17:47:32.129Z,2.95
2023-09-23T17:50:37.411Z,2.92
2023-09-23T17:53:41.042Z,2.88
2023-09-23T17:56:43.642Z,3.22
2023-09-23T17:59:49.723Z,2.92
2023-09-23T18:02:53.603Z,3.30
2023-09-23T18:05:57.610Z,3.30
2023-09-23T18:09:01.450Z,3.40
2023-09-23T18:12:07.089Z,3.08
2023-09-23T18:15:14.495Z,3.53
2023-09-23T18:18:18.323Z,4.22
2023-09-23T18:21:22.954Z,3.38
2023-09-23T18:24:25.940Z,3.83
2023-09-23T18:27:31.481Z,2.95
2023-09-23T18:30:35.953Z,3.80
2023-09-23T18:33:41.269Z,3.58
2023-09-23T18:39:46.800Z,3.88
2023-09-23T18:42:50.685Z,3.75
2023-09-23T18:45:58.698Z,3.90
2023-09-23T18:49:03.111Z,4.00
2023-09-23T18:52:07.711Z,4.53
2023-09-23T18:55:12.959Z,4.70
2023-09-23T18:58:15.944Z,4.40
2023-09-23T19:01:23.633Z,4.90
2023-09-23T19:04:30.924Z,4.53
2023-09-23T19:07:35.070Z,5.15
2023-09-23T19:10:38.953Z,4.85
2023-09-23T19:13:43.665Z,5.85
2023-09-23T19:16:49.897Z,4.68
2023-09-23T19:19:54.997Z,5.22
2023-09-23T19:22:57.485Z,5.13
2023-09-23T19:26:03.657Z,5.72
2023-09-23T19:29:08.170Z,5.03
2023-09-23T19:32:15.160Z,5.13
2023-09-23T19:35:18.895Z,5.75
2023-09-23T19:38:22.672Z,5.47
2023-09-23T19:41:26.105Z,5.15
2023-09-23T19:44:30.204Z,5.60
2023-09-23T19:47:38.173Z,5.75
2023-09-23T19:50:44.020Z,6.18
2023-09-23T19:53:47.651Z,7.32
2023-09-23T19:56:51.126Z,7.03
2023-09-23T19:59:53.900Z,7.95
2023-09-23T20:02:58.154Z,6.68
2023-09-23T20:06:04.585Z,5.75
2023-09-23T20:09:07.849Z,5.53
2023-09-23T20:12:12.231Z,5.70
2023-09-23T20:15:16.450Z,5.47
2023-09-23T20:18:20.620Z,5.53
2023-09-23T20:21:23.724Z,5.30
2023-09-23T20:24:28.915Z,5.53
2023-09-23T20:27:34.516Z,5.70
2023-09-23T20:30:37.796Z,5.03
2023-09-23T20:33:44.162Z,4.93
2023-09-23T20:36:46.845Z,5.05
2023-09-23T20:39:52.537Z,4.10
2023-09-23T20:42:59.240Z,4.70
2023-09-23T20:46:02.527Z,4.60
2023-09-23T20:49:07.386Z,4.47
2023-09-23T20:52:10.466Z,4.05
2023-09-23T20:55:14.062Z,4.88
2023-09-23T20:58:16.348Z,4.95
2023-09-23T21:01:19.450Z,5.18
2023-09-23T21:04:22.929Z,4.93
2023-09-23T21:07:25.093Z,4.68
2023-09-23T21:10:26.926Z,4.53
2023-09-23T21:13:28.922Z,4.28
2023-09-23T21:16:31.745Z,4.22
2023-09-23T21:19:34.967Z,4.82
2023-09-23T21:22:37.037Z,4.43
2023-09-23T21:25:38.846Z,4.53
2023-09-23T21:28:40.839Z,4.18
2023-09-23T21:31:42.927Z,4.40
2023-09-23T21:34:46.237Z,4.80
2023-09-23T21:37:48.958Z,4.45
2023-09-23T21:40:50.969Z,4.63
2023-09-23T21:43:53.041Z,3.47
2023-09-23T21:46:54.990Z,4.63
2023-09-23T21:49:59.600Z,4.30
2023-09-23T21:53:01.478Z,4.47
2023-09-23T21:56:03.611Z,4.03
2023-09-23T21:59:06.074Z,4.50
2023-09-23T22:02:09.510Z,4.13
2023-09-23T22:05:13.488Z,4.57
2023-09-23T22:08:15.783Z,4.55
2023-09-23T22:11:19.174Z,4.53
2023-09-23T22:14:21.174Z,4.15
2023-09-23T22:17:27.003Z,3.88
2023-09-23T22:20:30.580Z,4.93
2023-09-23T22:23:32.738Z,4.25
2023-09-23T22:26:36.947Z,3.78
2023-09-23T22:29:40.261Z,3.90
2023-09-23T22:32:43.141Z,4.75
2023-09-23T22:35:48.624Z,4.20
2023-09-23T22:38:50.957Z,4.13
2023-09-23T22:41:53.767Z,3.97
2023-09-23T22:44:55.772Z,4.18
2023-09-23T22:48:00.606Z,3.63
2023-09-23T22:51:05.274Z,4.72
2023-09-23T22:54:07.282Z,4.38
2023-09-23T22:57:12.011Z,4.30
2023-09-23T23:00:15.983Z,4.20
2023-09-23T23:03:20.214Z,4.15
2023-09-23T23:06:23.795Z,4.30
2023-09-23T23:09:27.819Z,4.22
2023-09-23T23:12:30.235Z,3.92
2023-09-23T23:15:32.879Z,4.20
2023-09-23T23:18:35.250Z,3.88
2023-09-23T23:21:38.992Z,4.25
2023-09-23T23:24:41.540Z,4.55
2023-09-23T23:27:44.270Z,4.05
2023-09-23T23:30:46.722Z,4.82
2023-09-23T23:33:49.030Z,4.53
2023-09-23T23:36:53.020Z,4.60
2023-09-23T23:39:54.897Z,4.78
2023-09-23T23:42:56.764Z,4.22
2023-09-23T23:46:00.120Z,4.13
2023-09-23T23:49:02.058Z,5.05
2023-09-23T23:52:08.285Z,5.05
2023-09-23T23:55:10.566Z,5.15
2023-09-23T23:58:14.069Z,6.07
